Terminal Aerodrome Forecast
Issued by NWS

Home | Current Version | Previous Version | Text Only | Print | Product List | Glossary On
Versions: 1 2 3 4 5 6 7 8 9 10 11 12 13 14 15 16 17 18 19 20 21 22 23
000
FTUS45 KREV 022326
TAFCXP
TAF
KCXP 022326Z 0300/0324 27012G22KT P6SM FEW100 FEW250
     FM030400 VRB03KT P6SM FEW250
     FM032000 26012G22KT P6SM BKN150=

USA.gov is the U.S. government's official web portal to all federal, state and local government web resources and services.